createdAt,value
2023-03-03T00:01:42.560Z,59.11
2023-03-03T00:04:44.074Z,59.07
2023-03-03T00:07:46.300Z,59.19
2023-03-03T00:10:47.894Z,59.18
2023-03-03T00:13:54.720Z,58.97
2023-03-03T00:16:58.362Z,59.06
2023-03-03T00:20:22.033Z,59.05
2023-03-03T00:23:42.525Z,59.14
2023-03-03T00:26:51.422Z,59.28
2023-03-03T00:29:57.619Z,59.22
2023-03-03T00:32:59.170Z,59.37
2023-03-03T00:36:28.694Z,59.35
2023-03-03T00:39:38.016Z,59.25
2023-03-03T00:42:39.478Z,58.96
2023-03-03T00:45:45.890Z,59.43
2023-03-03T00:48:48.692Z,59.52
2023-03-03T00:51:50.426Z,59.38
2023-03-03T00:54:51.893Z,59.37
2023-03-03T00:57:53.615Z,59.42
2023-03-03T01:00:59.685Z,59.32
2023-03-03T01:04:12.281Z,59.33
2023-03-03T01:07:13.966Z,59.36
2023-03-03T01:10:15.622Z,59.30
2023-03-03T01:13:18.071Z,59.42
2023-03-03T01:16:19.770Z,59.43
2023-03-03T01:19:21.312Z,59.43
2023-03-03T01:22:22.865Z,59.40
2023-03-03T01:25:24.899Z,59.43
2023-03-03T01:28:26.457Z,59.48
2023-03-03T01:31:28.140Z,59.43
2023-03-03T01:34:29.758Z,59.55
2023-03-03T01:37:31.302Z,59.48
2023-03-03T01:40:32.909Z,59.42
2023-03-03T01:43:34.550Z,59.39
2023-03-03T01:46:36.066Z,59.47
2023-03-03T01:49:45.850Z,59.47
2023-03-03T01:52:47.978Z,59.49
2023-03-03T01:55:52.947Z,59.52
2023-03-03T01:59:12.322Z,59.62
2023-03-03T02:02:14.033Z,59.65
2023-03-03T02:05:16.601Z,59.61
2023-03-03T02:08:23.650Z,59.52
2023-03-03T02:11:26.726Z,59.64
2023-03-03T02:14:28.290Z,59.62
2023-03-03T02:17:29.786Z,59.50
2023-03-03T02:20:52.182Z,59.52
2023-03-03T02:24:00.554Z,59.47
2023-03-03T02:27:02.914Z,59.41
2023-03-03T02:30:17.254Z,59.41
2023-03-03T02:33:19.098Z,59.47
2023-03-03T02:36:21.874Z,59.54
2023-03-03T02:39:27.231Z,59.47
2023-03-03T02:42:30.756Z,59.56
2023-03-03T02:45:33.347Z,59.65
2023-03-03T02:48:34.915Z,59.82
2023-03-03T02:51:36.840Z,59.66
2023-03-03T02:54:39.301Z,59.69
2023-03-03T02:57:40.913Z,59.66
2023-03-03T03:00:42.431Z,59.44
2023-03-03T03:03:44.173Z,59.69
2023-03-03T03:06:46.431Z,59.62
2023-03-03T03:09:49.777Z,59.62
2023-03-03T03:12:52.212Z,59.57
2023-03-03T03:15:54.240Z,59.47
2023-03-03T03:18:55.901Z,59.65
2023-03-03T03:21:57.549Z,59.71
2023-03-03T03:24:59.140Z,59.73
2023-03-03T03:28:01.934Z,59.71
2023-03-03T03:31:05.060Z,59.77
2023-03-03T03:34:07.682Z,59.71
2023-03-03T03:37:09.823Z,59.79
2023-03-03T03:40:12.507Z,59.72
2023-03-03T03:43:14.294Z,59.72
2023-03-03T03:46:16.334Z,59.23
2023-03-03T03:49:20.777Z,59.58
2023-03-03T03:52:24.007Z,59.34
2023-03-03T03:55:26.084Z,59.54
2023-03-03T03:58:27.821Z,59.58
2023-03-03T04:01:34.579Z,59.68
2023-03-03T04:04:36.551Z,59.74
2023-03-03T04:07:39.063Z,59.71
2023-03-03T04:10:40.886Z,59.82
2023-03-03T04:13:42.751Z,59.88
2023-03-03T04:16:45.252Z,59.90
2023-03-03T04:19:47.507Z,59.78
2023-03-03T04:22:49.310Z,59.79
2023-03-03T04:25:50.988Z,59.80
2023-03-03T04:28:53.753Z,59.64
2023-03-03T04:31:56.525Z,59.71
2023-03-03T04:35:07.278Z,59.68
2023-03-03T04:38:12.025Z,59.64
2023-03-03T04:41:13.787Z,59.75
2023-03-03T04:44:16.573Z,59.91
2023-03-03T04:47:18.691Z,59.83
2023-03-03T04:50:20.877Z,59.78
2023-03-03T04:53:22.749Z,59.87
2023-03-03T04:56:24.375Z,59.85
2023-03-03T04:59:25.965Z,59.88
2023-03-03T05:02:27.969Z,59.70
2023-03-03T05:05:29.520Z,59.88
2023-03-03T05:08:30.995Z,59.85
2023-03-03T05:11:32.534Z,59.77
2023-03-03T05:14:34.062Z,59.80
2023-03-03T05:17:35.710Z,59.78
2023-03-03T05:20:37.183Z,59.84
2023-03-03T05:23:38.631Z,59.84
2023-03-03T05:26:40.904Z,59.90
2023-03-03T05:29:42.473Z,60.02
2023-03-03T05:32:44.007Z,60.21
2023-03-03T05:35:45.574Z,59.97
2023-03-03T05:38:47.130Z,59.82
2023-03-03T05:41:48.701Z,59.94
2023-03-03T05:44:50.190Z,59.73
2023-03-03T05:47:52.206Z,59.76
2023-03-03T05:50:53.965Z,59.91
2023-03-03T05:53:56.608Z,59.88
2023-03-03T05:56:58.179Z,60.01
2023-03-03T05:59:59.707Z,59.96
2023-03-03T06:03:01.563Z,60.01
2023-03-03T06:06:03.393Z,60.13
2023-03-03T06:09:05.067Z,60.10
2023-03-03T06:12:06.911Z,60.10
2023-03-03T06:15:10.325Z,60.19
2023-03-03T06:18:11.824Z,59.73
2023-03-03T06:21:13.396Z,60.20
2023-03-03T06:24:15.629Z,60.13
2023-03-03T06:27:17.124Z,60.07
2023-03-03T06:30:19.998Z,59.99
2023-03-03T06:33:22.124Z,59.96
2023-03-03T06:36:25.331Z,59.91
2023-03-03T06:39:26.945Z,59.72
2023-03-03T06:42:28.428Z,59.64
2023-03-03T06:45:30.015Z,59.62
2023-03-03T06:48:33.070Z,59.68
2023-03-03T06:51:39.654Z,59.53
2023-03-03T06:54:41.082Z,59.47
2023-03-03T06:57:42.566Z,59.42
2023-03-03T07:00:46.179Z,59.32
2023-03-03T07:03:47.799Z,59.32
2023-03-03T07:06:49.293Z,59.48
2023-03-03T07:09:54.172Z,59.13
2023-03-03T07:13:01.010Z,59.18
2023-03-03T07:16:11.683Z,59.20
2023-03-03T07:19:21.291Z,59.08
2023-03-03T07:22:25.856Z,59.11
2023-03-03T07:25:33.483Z,59.10
2023-03-03T07:28:35.125Z,59.17
2023-03-03T07:31:41.593Z,59.20
2023-03-03T07:34:46.195Z,59.20
2023-03-03T07:37:48.051Z,59.33
2023-03-03T07:40:52.540Z,59.50
2023-03-03T07:43:55.095Z,59.36
2023-03-03T07:46:56.600Z,59.29
2023-03-03T07:50:00.969Z,59.29
2023-03-03T07:53:02.968Z,59.34
2023-03-03T07:56:34.076Z,59.20
2023-03-03T07:59:37.683Z,59.21
2023-03-03T08:02:57.505Z,59.16
2023-03-03T08:06:03.191Z,59.19
2023-03-03T08:09:10.572Z,59.14
2023-03-03T08:12:17.432Z,59.24
2023-03-03T08:15:25.230Z,59.18
2023-03-03T08:18:46.807Z,59.14
2023-03-03T08:21:48.411Z,59.19
2023-03-03T08:24:49.859Z,59.16
2023-03-03T08:27:51.290Z,59.17
2023-03-03T08:31:02.698Z,59.18
2023-03-03T08:34:10.492Z,59.14
2023-03-03T08:37:12.026Z,59.15
2023-03-03T08:40:13.707Z,59.09
2023-03-03T08:43:18.201Z,59.01
2023-03-03T08:46:19.696Z,58.90
2023-03-03T08:49:21.472Z,58.87
2023-03-03T08:52:22.930Z,58.81
2023-03-03T08:55:24.471Z,58.85
2023-03-03T08:58:35.024Z,58.77
2023-03-03T09:01:37.545Z,58.85
2023-03-03T09:04:39.425Z,58.71
2023-03-03T09:07:41.195Z,58.85
2023-03-03T09:10:42.706Z,58.83
2023-03-03T09:13:44.148Z,58.76
2023-03-03T09:16:52.797Z,58.85
2023-03-03T09:20:01.068Z,58.82
2023-03-03T09:23:42.183Z,58.79
2023-03-03T09:26:47.901Z,58.72
2023-03-03T09:29:49.403Z,58.44
2023-03-03T09:32:51.042Z,58.63
2023-03-03T09:36:12.420Z,58.58
2023-03-03T09:39:19.380Z,58.60
2023-03-03T09:42:32.729Z,58.64
2023-03-03T09:45:52.966Z,58.50
2023-03-03T09:49:04.185Z,58.56
2023-03-03T09:52:31.932Z,58.44
2023-03-03T09:56:10.635Z,58.63
2023-03-03T09:59:21.897Z,58.45
2023-03-03T10:02:44.038Z,58.50
2023-03-03T10:06:04.002Z,58.47
2023-03-03T10:09:31.725Z,58.40
2023-03-03T10:13:15.609Z,58.29
2023-03-03T10:16:38.555Z,58.23
2023-03-03T10:19:46.368Z,58.22
2023-03-03T10:22:53.491Z,58.26
2023-03-03T10:26:03.969Z,58.12
2023-03-03T10:29:22.168Z,58.12
2023-03-03T10:32:45.469Z,58.12
2023-03-03T10:36:25.476Z,58.17
2023-03-03T10:39:47.772Z,58.39
2023-03-03T10:43:08.020Z,58.49
2023-03-03T10:46:19.387Z,58.55
2023-03-03T10:49:39.306Z,58.73
2023-03-03T10:52:46.722Z,58.80
2023-03-03T10:55:52.009Z,58.86
2023-03-03T10:59:16.773Z,58.90
2023-03-03T11:02:35.631Z,59.23
2023-03-03T11:05:42.696Z,59.03
2023-03-03T11:09:05.268Z,59.08
2023-03-03T11:12:12.612Z,59.18
2023-03-03T11:15:41.659Z,59.23
2023-03-03T11:19:11.397Z,59.25
2023-03-03T11:22:21.668Z,59.14
2023-03-03T11:25:33.906Z,59.15
2023-03-03T11:28:56.707Z,59.27
2023-03-03T11:32:07.370Z,59.23
2023-03-03T11:35:19.595Z,59.31
2023-03-03T11:38:51.199Z,59.34
2023-03-03T11:42:23.898Z,59.33
2023-03-03T11:45:41.955Z,59.37
2023-03-03T11:49:05.011Z,59.28
2023-03-03T11:52:31.740Z,59.38
2023-03-03T11:55:36.051Z,59.25
2023-03-03T11:58:54.260Z,59.30
2023-03-03T12:01:55.767Z,59.26
2023-03-03T12:05:08.825Z,59.25
2023-03-03T12:08:20.847Z,58.98
2023-03-03T12:11:33.262Z,58.96
2023-03-03T12:14:34.764Z,59.05
2023-03-03T12:18:08.639Z,59.12
2023-03-03T12:21:11.202Z,59.14
2023-03-03T12:24:46.883Z,59.14
2023-03-03T12:28:10.365Z,59.00
2023-03-03T12:31:36.973Z,58.95
2023-03-03T12:34:51.112Z,58.91
2023-03-03T12:38:13.833Z,58.84
2023-03-03T12:41:37.655Z,58.83
2023-03-03T12:44:47.275Z,58.86
2023-03-03T12:48:08.251Z,58.85
2023-03-03T12:51:47.371Z,59.06
2023-03-03T12:55:03.828Z,58.99
2023-03-03T12:58:17.901Z,59.01
2023-03-03T13:01:41.222Z,59.32
2023-03-03T13:04:47.076Z,55.44
2023-03-03T13:08:23.499Z,51.59
2023-03-03T13:11:46.958Z,48.94
2023-03-03T13:15:18.390Z,48.23
2023-03-03T13:18:25.930Z,46.64
2023-03-03T13:21:48.796Z,45.39
2023-03-03T13:25:19.654Z,45.34
2023-03-03T13:28:33.004Z,45.81
2023-03-03T13:31:39.299Z,48.47
2023-03-03T13:34:43.881Z,49.94
2023-03-03T13:37:49.986Z,50.64
2023-03-03T13:41:02.917Z,51.20
2023-03-03T13:44:12.287Z,51.48
2023-03-03T13:47:45.405Z,51.56
2023-03-03T13:51:02.296Z,51.71
2023-03-03T13:54:04.844Z,51.97
2023-03-03T13:57:15.323Z,52.29
2023-03-03T14:00:38.280Z,52.34
2023-03-03T14:03:43.417Z,52.71
2023-03-03T14:06:55.712Z,52.95
2023-03-03T14:10:03.562Z,53.21
2023-03-03T14:13:46.467Z,53.45
2023-03-03T14:16:57.101Z,53.76
2023-03-03T14:20:20.441Z,54.09
2023-03-03T14:23:35.689Z,54.13
2023-03-03T14:26:50.700Z,54.24
2023-03-03T14:29:52.279Z,54.31
2023-03-03T14:33:00.793Z,54.68
2023-03-03T14:36:05.302Z,54.90
2023-03-03T14:39:33.311Z,55.24
2023-03-03T14:42:50.400Z,55.45
2023-03-03T14:45:54.124Z,55.53
2023-03-03T14:49:01.239Z,55.70
2023-03-03T14:52:16.485Z,55.74
2023-03-03T14:55:35.931Z,55.81
2023-03-03T14:58:42.174Z,56.18
2023-03-03T15:01:44.534Z,56.32
2023-03-03T15:04:48.437Z,56.62
2023-03-03T15:08:08.735Z,56.75
2023-03-03T15:11:33.220Z,56.87
2023-03-03T15:14:44.267Z,57.37
2023-03-03T15:18:04.295Z,57.51
2023-03-03T15:21:10.337Z,57.75
2023-03-03T15:24:26.892Z,58.11
2023-03-03T15:28:06.026Z,58.16
2023-03-03T15:31:22.662Z,58.32
2023-03-03T15:34:42.698Z,58.39
2023-03-03T15:38:32.877Z,58.45
2023-03-03T15:41:45.396Z,58.70
2023-03-03T15:44:53.301Z,58.77
2023-03-03T15:48:25.144Z,58.89
2023-03-03T15:51:39.039Z,58.72
2023-03-03T15:55:00.800Z,58.65
2023-03-03T15:58:26.923Z,58.77
2023-03-03T16:01:39.419Z,58.74
2023-03-03T16:04:58.242Z,58.90
2023-03-03T16:08:09.795Z,58.86
2023-03-03T16:11:30.531Z,58.74
2023-03-03T16:14:58.332Z,58.56
2023-03-03T16:18:24.629Z,58.66
2023-03-03T16:22:02.291Z,58.59
2023-03-03T16:25:13.292Z,58.58
2023-03-03T16:28:26.685Z,58.63
2023-03-03T16:31:37.772Z,58.82
2023-03-03T16:34:55.544Z,58.90
2023-03-03T16:38:01.783Z,59.06
2023-03-03T16:41:10.074Z,59.15
2023-03-03T16:44:11.497Z,59.13
2023-03-03T16:47:53.416Z,59.26
2023-03-03T16:51:32.516Z,59.24
2023-03-03T16:54:54.461Z,59.10
2023-03-03T16:58:08.167Z,59.08
2023-03-03T17:01:22.729Z,59.09
2023-03-03T17:04:34.623Z,58.96
2023-03-03T17:07:51.171Z,59.02
2023-03-03T17:11:17.618Z,58.82
2023-03-03T17:14:46.014Z,58.81
2023-03-03T17:18:06.798Z,58.82
2023-03-03T17:21:20.282Z,58.88
2023-03-03T17:24:46.170Z,59.07
2023-03-03T17:27:53.584Z,59.32
2023-03-03T17:31:18.257Z,59.29
2023-03-03T17:34:33.210Z,59.44
2023-03-03T17:38:04.893Z,59.37
2023-03-03T17:41:14.962Z,59.29
2023-03-03T17:44:22.503Z,59.25
2023-03-03T17:47:42.357Z,59.15
2023-03-03T17:51:11.697Z,59.05
2023-03-03T17:54:19.360Z,59.02
2023-03-03T17:57:33.454Z,58.99
2023-03-03T18:00:56.086Z,59.06
2023-03-03T18:04:18.903Z,59.00
2023-03-03T18:07:38.917Z,60.06
2023-03-03T18:11:07.988Z,61.20
2023-03-03T18:14:35.803Z,61.76
2023-03-03T18:17:49.567Z,62.37
2023-03-03T18:20:54.306Z,62.59
2023-03-03T18:24:26.187Z,62.95
2023-03-03T18:27:36.796Z,63.39
2023-03-03T18:30:57.952Z,63.48
2023-03-03T18:34:08.520Z,63.69
2023-03-03T18:37:38.112Z,63.95
2023-03-03T18:40:56.660Z,63.91
2023-03-03T18:44:22.391Z,63.92
2023-03-03T18:48:02.734Z,63.88
2023-03-03T18:51:08.219Z,63.95
2023-03-03T18:54:12.460Z,63.91
2023-03-03T18:57:18.817Z,63.91
2023-03-03T19:00:28.466Z,63.79
2023-03-03T19:03:56.883Z,63.76
2023-03-03T19:07:26.788Z,63.72
2023-03-03T19:10:43.490Z,63.61
2023-03-03T19:13:46.765Z,63.55
2023-03-03T19:16:49.608Z,63.60
2023-03-03T19:20:15.343Z,63.37
2023-03-03T19:23:36.664Z,63.48
2023-03-03T19:26:56.571Z,63.33
2023-03-03T19:30:39.793Z,63.34
2023-03-03T19:34:10.412Z,63.31
2023-03-03T19:37:20.892Z,63.09
2023-03-03T19:40:44.380Z,62.79
2023-03-03T19:43:54.768Z,62.70
2023-03-03T19:47:00.932Z,62.33
2023-03-03T19:50:34.438Z,62.28
2023-03-03T19:54:03.118Z,62.25
2023-03-03T19:57:11.303Z,62.03
2023-03-03T20:00:23.385Z,62.05
2023-03-03T20:03:39.165Z,62.16
2023-03-03T20:06:55.663Z,62.07
2023-03-03T20:10:15.591Z,62.07
2023-03-03T20:13:40.223Z,61.95
2023-03-03T20:16:48.129Z,61.97
2023-03-03T20:20:04.931Z,61.86
2023-03-03T20:23:32.271Z,61.74
2023-03-03T20:26:33.704Z,61.77
2023-03-03T20:30:08.318Z,61.69
2023-03-03T20:33:34.083Z,61.78
2023-03-03T20:37:00.510Z,61.62
2023-03-03T20:40:45.580Z,61.55
2023-03-03T20:44:03.713Z,61.70
2023-03-03T20:47:43.174Z,61.72
2023-03-03T20:51:12.729Z,61.66
2023-03-03T20:54:20.150Z,61.83
2023-03-03T20:57:47.617Z,61.69
2023-03-03T21:01:07.794Z,61.77
2023-03-03T21:04:27.846Z,61.69
2023-03-03T21:07:29.348Z,61.79
2023-03-03T21:10:36.664Z,61.76
2023-03-03T21:13:44.098Z,61.79
2023-03-03T21:16:45.746Z,61.65
2023-03-03T21:19:47.280Z,61.35
2023-03-03T21:22:48.922Z,61.64
2023-03-03T21:25:52.779Z,61.61
2023-03-03T21:29:03.290Z,61.59
2023-03-03T21:32:09.571Z,61.77
2023-03-03T21:35:14.282Z,61.54
2023-03-03T21:38:32.334Z,61.49
2023-03-03T21:41:55.318Z,61.54
2023-03-03T21:44:56.798Z,61.51
2023-03-03T21:47:59.779Z,61.57
2023-03-03T21:51:03.751Z,61.53
2023-03-03T21:54:05.231Z,61.58
2023-03-03T21:57:07.468Z,61.60
2023-03-03T22:00:10.169Z,61.63
2023-03-03T22:03:13.506Z,61.67
2023-03-03T22:06:14.947Z,61.64
2023-03-03T22:09:16.456Z,61.62
2023-03-03T22:12:18.279Z,61.67
2023-03-03T22:15:19.748Z,61.71
2023-03-03T22:18:21.524Z,61.59
2023-03-03T22:21:23.422Z,61.62
2023-03-03T22:24:24.863Z,60.84
2023-03-03T22:27:26.330Z,61.58
2023-03-03T22:30:27.912Z,61.70
2023-03-03T22:33:29.330Z,61.47
2023-03-03T22:36:30.812Z,61.40
2023-03-03T22:39:32.304Z,61.44
2023-03-03T22:42:33.761Z,61.35
2023-03-03T22:45:35.292Z,61.39
2023-03-03T22:48:37.704Z,61.37
2023-03-03T22:51:39.187Z,61.57
2023-03-03T22:54:40.929Z,61.64
2023-03-03T22:57:42.746Z,61.53
2023-03-03T23:00:44.182Z,61.65
2023-03-03T23:03:45.697Z,61.53
2023-03-03T23:06:47.223Z,61.43
2023-03-03T23:09:48.658Z,61.53
2023-03-03T23:12:50.202Z,61.55
2023-03-03T23:15:51.690Z,61.40
2023-03-03T23:18:53.181Z,61.75
2023-03-03T23:21:54.599Z,61.56
2023-03-03T23:24:56.053Z,61.30
2023-03-03T23:27:58.037Z,61.41
2023-03-03T23:30:59.521Z,61.40
2023-03-03T23:34:01.024Z,61.42
2023-03-03T23:37:02.508Z,61.45
2023-03-03T23:40:04.436Z,61.46
2023-03-03T23:43:05.891Z,61.47
2023-03-03T23:46:07.348Z,61.59
2023-03-03T23:49:08.804Z,61.48
2023-03-03T23:52:10.292Z,61.53
2023-03-03T23:55:11.813Z,61.63
2023-03-03T23:58:13.499Z,61.54
